Time;durP1;ratioP1;P1;durP2;ratioP2;P2;SDS_P1;SDS_P2;PMS_P1;PMS_P2;Temp;Humidity;BMP_temperature;BMP_pressure;BME280_temperature;BME280_humidity;BME280_pressure;Samples;Min_cycle;Max_cycle;Signal;HPM_P1;HPM_P2
2022/01/12 00:02:07;;;;;;;24.95;13.70;;;;;;;-2.72;54.73;95695.21;1721557;82;21476;-58
2022/01/12 00:04:37;;;;;;;33.92;19.82;;;;;;;-2.80;54.91;95702.87;1735002;81;21110;-58
2022/01/12 00:07:06;;;;;;;46.53;27.07;;;;;;;-2.84;55.39;95703.88;1662844;83;21092;-58
2022/01/12 00:09:33;;;;;;;36.50;18.95;;;;;;;-2.84;55.90;95711.95;1708770;82;21080;-58
2022/01/12 00:12:00;;;;;;;23.80;13.68;;;;;;;-2.82;56.30;95707.81;1687773;83;21151;-58
2022/01/12 00:14:32;;;;;;;14.78;10.68;;;;;;;-2.73;56.15;95717.87;1729461;82;21023;-59
2022/01/12 00:16:59;;;;;;;14.25;9.35;;;;;;;-2.65;56.28;95713.49;1715502;82;21011;-56
2022/01/12 00:19:24;;;;;;;13.93;10.72;;;;;;;-2.50;56.05;95708.75;1708577;82;21003;-57
2022/01/12 00:21:51;;;;;;;43.45;21.05;;;;;;;-2.37;55.79;95716.45;1685397;82;20964;-59
2022/01/12 00:24:21;;;;;;;23.15;14.43;;;;;;;-2.35;55.87;95704.77;1721683;82;21203;-58
2022/01/12 00:35:12;;;;;;;15.65;12.15;;;;;;;-2.92;54.61;95712.30;1719509;82;21022;-58
2022/01/12 00:37:39;;;;;;;28.87;14.47;;;;;;;-2.97;54.90;95712.53;1711716;83;21233;-57
2022/01/12 00:40:08;;;;;;;23.50;14.20;;;;;;;-2.89;55.52;95718.92;1676644;83;21494;-58
2022/01/12 00:42:35;;;;;;;23.60;13.90;;;;;;;-2.80;55.68;95722.27;1722126;82;21010;-60
2022/01/12 00:45:04;;;;;;;22.20;11.90;;;;;;;-2.71;55.73;95710.24;1722206;83;21025;-60
2022/01/12 00:47:31;;;;;;;20.70;13.20;;;;;;;-2.65;55.34;95730.99;1722122;83;20974;-56
2022/01/12 00:49:58;;;;;;;15.13;10.35;;;;;;;-2.72;55.23;95719.45;1716673;81;21919;-58
2022/01/12 00:52:24;;;;;;;15.65;10.95;;;;;;;-2.72;54.90;95722.14;1702704;81;21031;-56
2022/01/12 00:54:54;;;;;;;21.15;13.03;;;;;;;-2.78;54.57;95720.81;1741059;81;20962;-57
2022/01/12 00:57:23;;;;;;;11.85;9.08;;;;;;;-2.79;54.84;95722.48;1725958;81;20979;-57
2022/01/12 00:59:53;;;;;;;18.52;11.12;;;;;;;-2.74;53.98;95724.39;1719508;81;20995;-58
2022/01/12 01:02:20;;;;;;;15.03;10.98;;;;;;;-2.68;53.77;95719.56;1734130;81;21143;-56
2022/01/12 01:04:47;;;;;;;14.35;11.38;;;;;;;-2.61;53.99;95719.21;1693160;82;21014;-56
2022/01/12 01:07:18;;;;;;;23.00;11.75;;;;;;;-2.67;54.08;95723.82;1707859;82;21090;-56
2022/01/12 01:09:56;;;;;;;13.60;10.82;;;;;;;-2.63;54.15;95719.31;1691301;82;21018;-57
2022/01/12 01:12:18;;;;;;;14.15;10.60;;;;;;;-2.54;54.18;95717.30;1721383;83;21021;-57
2022/01/12 01:15:03;;;;;;;18.45;11.75;;;;;;;-2.58;54.61;95722.56;1706721;83;21187;-58
2022/01/12 01:25:43;;;;;;;20.88;13.90;;;;;;;-2.51;55.29;95716.61;1702482;83;20991;-57
2022/01/12 01:28:13;;;;;;;26.23;15.20;;;;;;;-2.51;55.36;95721.41;1705893;82;21772;-57
2022/01/12 01:30:42;;;;;;;30.92;16.55;;;;;;;-2.56;55.22;95731.09;1696904;83;20955;-57
2022/01/12 01:33:10;;;;;;;30.88;16.62;;;;;;;-2.52;55.29;95726.58;1699837;83;21471;-57
2022/01/12 01:35:46;;;;;;;40.28;19.55;;;;;;;-2.55;54.40;95729.19;1692493;83;21077;-58
2022/01/12 01:38:13;;;;;;;30.37;17.73;;;;;;;-2.72;53.98;95724.83;1708919;83;20971;-57
2022/01/12 01:40:43;;;;;;;42.17;23.18;;;;;;;-2.77;54.79;95723.72;1711570;83;21189;-57
2022/01/12 01:43:23;;;;;;;41.73;20.32;;;;;;;-2.76;55.30;95719.11;1689247;83;20964;-56
2022/01/12 01:54:07;;;;;;;21.62;14.05;;;;;;;-2.92;54.82;95728.45;1716145;82;21175;-57
2022/01/12 01:56:34;;;;;;;24.95;13.05;;;;;;;-3.03;54.76;95727.32;1677390;84;21047;-58
2022/01/12 01:59:01;;;;;;;32.10;16.82;;;;;;;-3.13;54.29;95727.79;1709243;83;20964;-57
2022/01/12 02:01:29;;;;;;;30.75;16.23;;;;;;;-3.22;54.43;95728.45;1699160;83;20972;-57
2022/01/12 02:04:01;;;;;;;22.07;15.08;;;;;;;-3.25;55.30;95731.04;1698449;83;21059;-56
2022/01/12 02:06:27;;;;;;;27.85;14.50;;;;;;;-3.21;55.93;95740.00;1729037;80;21180;-57
2022/01/12 02:08:56;;;;;;;28.55;15.98;;;;;;;-3.21;55.67;95728.67;1763078;80;21026;-58
2022/01/12 02:11:26;;;;;;;28.40;16.37;;;;;;;-3.22;55.60;95729.78;1757141;80;21022;-57
2022/01/12 02:13:56;;;;;;;36.05;22.87;;;;;;;-3.25;55.48;95742.57;1738095;81;21049;-56
2022/01/12 02:16:48;;;;;;;22.02;15.98;;;;;;;-3.33;56.35;95738.09;1759632;81;21021;-56
2022/01/12 02:35:46;;;;;;;19.15;13.03;;;;;;;-2.77;56.86;95741.22;1748501;81;21981;-57
2022/01/12 02:40:39;;;;;;;20.97;11.73;;;;;;;-2.65;56.33;95745.22;1735581;81;20994;-56
2022/01/12 02:51:15;;;;;;;25.23;16.80;;;;;;;-2.96;54.61;95736.98;1719208;82;21479;-57
2022/01/12 02:53:41;;;;;;;28.07;18.00;;;;;;;-2.93;54.84;95743.58;1715645;81;21102;-59
2022/01/12 02:56:16;;;;;;;28.75;14.70;;;;;;;-2.94;55.40;95742.80;1718643;82;20964;-58
2022/01/12 02:58:45;;;;;;;20.92;14.47;;;;;;;-2.79;55.63;95738.09;1729422;81;21781;-58
2022/01/12 03:04:02;;;;;;;24.15;15.35;;;;;;;-2.57;55.33;95734.11;1738088;82;20963;-57
2022/01/12 03:06:34;;;;;;;22.75;14.50;;;;;;;-2.56;55.52;95724.35;1742049;81;20968;-56
2022/01/12 03:09:00;;;;;;;19.82;13.88;;;;;;;-2.52;55.91;95733.31;1722834;81;21953;-58
2022/01/12 03:11:28;;;;;;;21.05;13.85;;;;;;;-2.48;55.73;95729.39;1730583;81;21941;-58
2022/01/12 03:13:56;;;;;;;18.77;12.50;;;;;;;-2.49;55.89;95723.20;1713308;81;21056;-57
2022/01/12 03:16:27;;;;;;;21.73;14.80;;;;;;;-2.46;55.77;95725.79;1701040;82;21044;-58
2022/01/12 03:19:01;;;;;;;19.03;12.50;;;;;;;-2.48;55.58;95721.31;1685784;81;21017;-58
2022/01/12 03:21:30;;;;;;;;;;;;;;;-2.51;55.77;95725.45;1717641;81;22181;-58
2022/01/12 03:23:58;;;;;;;19.00;12.98;;;;;;;-2.53;56.15;95725.02;1704552;82;21145;-59
2022/01/12 03:26:28;;;;;;;21.97;13.98;;;;;;;-2.43;56.28;95722.41;1707201;82;21030;-59
2022/01/12 03:28:56;;;;;;;19.17;12.37;;;;;;;-2.26;56.12;95724.83;1707335;82;21121;-57
2022/01/12 03:31:33;;;;;;;31.23;17.50;;;;;;;-2.16;55.65;95724.36;1716287;81;20953;-59
2022/01/12 03:34:08;;;;;;;20.02;14.05;;;;;;;-2.28;55.55;95726.53;1732984;82;21106;-56
2022/01/12 04:08:23;;;;;;;28.10;17.55;;;;;;;-3.18;56.03;95741.47;1728173;80;21489;-58
2022/01/12 04:10:55;;;;;;;21.93;16.02;;;;;;;-3.11;55.89;95737.65;1766265;80;21207;-59
2022/01/12 04:13:23;;;;;;;23.30;16.90;;;;;;;-2.98;56.54;95740.57;1764200;80;21808;-57
2022/01/12 04:15:57;;;;;;;20.27;13.78;;;;;;;-2.76;56.64;95738.75;1752205;81;21003;-58
2022/01/12 04:18:24;;;;;;;24.72;13.88;;;;;;;-2.60;56.52;95737.48;1747767;81;21854;-58
2022/01/12 04:20:51;;;;;;;20.12;12.40;;;;;;;-2.54;56.33;95731.53;1736241;81;21506;-58
2022/01/12 04:23:22;;;;;;;23.87;14.43;;;;;;;-2.42;56.42;95732.86;1762895;80;21010;-58
2022/01/12 04:25:54;;;;;;;20.65;14.23;;;;;;;-2.23;56.30;95733.02;1752868;81;21135;-58
2022/01/12 04:28:21;;;;;;;23.50;16.77;;;;;;;-2.10;55.79;95739.92;1760169;80;20944;-57
2022/01/12 04:30:49;;;;;;;17.65;12.95;;;;;;;-2.17;56.10;95727.60;1732699;81;21006;-57
2022/01/12 04:33:17;;;;;;;25.17;17.42;;;;;;;-2.20;55.95;95739.63;1740463;80;21549;-58
2022/01/12 04:35:46;;;;;;;27.60;14.80;;;;;;;-2.35;55.96;95741.71;1765207;80;21056;-57
2022/01/12 04:38:13;;;;;;;18.95;13.18;;;;;;;-2.56;55.05;95737.81;1740728;81;21969;-58
2022/01/12 04:40:41;;;;;;;18.02;12.75;;;;;;;-2.89;55.86;95739.11;1725034;81;20946;-59
2022/01/12 04:43:09;;;;;;;28.67;19.73;;;;;;;-3.03;56.66;95748.08;1715306;82;21449;-57
2022/01/12 04:50:52;;;;;;;15.70;12.07;;;;;;;-3.19;56.75;95754.70;1706023;83;21628;-57
2022/01/12 04:53:19;;;;;;;15.20;12.35;;;;;;;-3.25;57.11;95759.28;1721836;83;20954;-58
2022/01/12 04:55:47;;;;;;;19.85;12.73;;;;;;;-3.25;56.20;95758.71;1722097;83;21014;-60
2022/01/12 04:58:15;;;;;;;19.62;13.62;;;;;;;-3.34;56.46;95760.73;1717755;83;21035;-59
2022/01/12 05:00:43;;;;;;;21.00;14.18;;;;;;;-3.40;56.12;95760.70;1691900;83;21015;-58
2022/01/12 05:14:02;;;;;;;19.73;12.47;;;;;;;-3.63;57.35;95750.72;1691497;83;21029;-59
2022/01/12 05:16:29;;;;;;;17.40;12.07;;;;;;;-3.53;57.21;95748.16;1696256;83;21905;-63
2022/01/12 05:18:56;;;;;;;19.00;13.90;;;;;;;-3.44;56.73;95754.44;1705932;83;21069;-58
2022/01/12 05:21:25;;;;;;;15.72;11.22;;;;;;;-3.40;56.91;95752.64;1702759;83;21442;-59
2022/01/12 05:23:53;;;;;;;21.95;13.00;;;;;;;-3.32;56.61;95753.11;1704693;83;20978;-61
2022/01/12 05:26:21;;;;;;;17.62;12.10;;;;;;;-3.33;56.69;95759.61;1679005;84;21026;-63
2022/01/12 05:28:47;;;;;;;21.42;13.13;;;;;;;-3.34;56.52;95754.56;1685416;83;21239;-60
2022/01/12 05:31:15;;;;;;;32.05;17.67;;;;;;;-3.31;56.50;95752.54;1715490;83;22596;-59
2022/01/12 05:33:47;;;;;;;27.82;16.67;;;;;;;-3.30;56.77;95755.45;1716131;82;33430;-59
2022/01/12 05:36:12;;;;;;;16.73;13.30;;;;;;;-3.25;56.54;95760.05;1663581;84;21537;-61
2022/01/12 05:38:41;;;;;;;18.98;12.75;;;;;;;-3.28;55.53;95751.31;1685942;84;21081;-59
2022/01/12 05:41:08;;;;;;;17.12;11.48;;;;;;;-3.30;55.63;95759.48;1701275;83;21122;-57
2022/01/12 05:43:37;;;;;;;16.70;12.73;;;;;;;-3.32;55.58;95751.77;1685715;82;22099;-59
2022/01/12 05:46:14;;;;;;;17.15;11.25;;;;;;;-3.31;55.64;95753.34;1700220;81;21071;-65
2022/01/12 05:51:31;;;;;;;22.50;13.40;;;;;;;-3.24;55.31;95767.01;1695134;83;20986;-57
2022/01/12 05:53:58;;;;;;;16.57;12.37;;;;;;;-3.38;55.64;95768.45;1702678;83;21151;-58
2022/01/12 05:56:28;;;;;;;19.92;13.72;;;;;;;-3.42;55.84;95767.55;1694819;82;21541;-58
2022/01/12 05:58:55;;;;;;;18.60;12.78;;;;;;;-3.40;55.79;95770.70;1698202;83;21069;-58
2022/01/12 06:01:22;;;;;;;26.65;14.60;;;;;;;-3.32;55.92;95767.11;1702727;83;21065;-57
2022/01/12 06:03:52;;;;;;;22.80;14.15;;;;;;;-3.33;56.10;95760.16;1701524;82;20999;-59
2022/01/12 06:06:21;;;;;;;22.13;13.15;;;;;;;-3.36;56.37;95769.70;1705817;83;21117;-59
2022/01/12 06:08:49;;;;;;;15.13;11.63;;;;;;;-3.42;56.20;95764.87;1686458;83;21078;-58
2022/01/12 06:11:19;;;;;;;17.73;11.50;;;;;;;-3.49;56.13;95762.72;1708292;83;21547;-61
2022/01/12 06:13:47;;;;;;;23.98;15.78;;;;;;;-3.48;55.86;95756.22;1674832;83;21062;-65
2022/01/12 06:16:14;;;;;;;19.75;13.90;;;;;;;-3.49;55.66;95765.41;1676682;83;21139;-60
2022/01/12 06:18:43;;;;;;;33.58;18.92;;;;;;;-3.47;55.75;95763.17;1722471;83;21160;-61
2022/01/12 06:21:11;;;;;;;27.50;17.10;;;;;;;-3.39;55.85;95765.54;1675701;83;21463;-59
2022/01/12 06:23:58;;;;;;;24.50;15.15;;;;;;;-3.35;55.59;95765.09;1715760;83;21137;-65
2022/01/12 06:26:26;;;;;;;23.55;13.43;;;;;;;-3.40;55.41;95769.34;1713555;83;21082;-60
2022/01/12 06:31:40;;;;;;;21.80;13.55;;;;;;;-3.51;55.30;95775.72;1720849;82;21175;-66
2022/01/12 06:34:07;;;;;;;19.80;14.25;;;;;;;-3.44;55.22;95783.25;1726937;82;21070;-61
2022/01/12 06:36:36;;;;;;;21.07;15.63;;;;;;;-3.47;54.83;95786.03;1714124;82;21062;-61
2022/01/12 06:39:09;;;;;;;24.52;16.65;;;;;;;-3.51;54.93;95785.13;1723160;81;21495;-59
2022/01/12 06:41:38;;;;;;;44.98;23.62;;;;;;;-3.42;55.09;95788.50;1685864;82;21240;-64
2022/01/12 06:44:09;;;;;;;25.35;14.60;;;;;;;-3.31;55.12;95793.69;1717920;82;21210;-61
2022/01/12 06:46:37;;;;;;;22.77;15.03;;;;;;;-3.27;54.69;95790.55;1617324;85;21097;-60
2022/01/12 06:49:04;;;;;;;25.10;16.62;;;;;;;-3.25;54.53;95801.75;1695158;83;21120;-61
2022/01/12 06:51:31;;;;;;;32.93;21.12;;;;;;;-3.26;54.26;95802.88;1708839;81;21062;-62
2022/01/12 06:54:01;;;;;;;21.33;13.15;;;;;;;-3.34;54.07;95802.42;1725609;81;21068;-62
2022/01/12 06:56:28;;;;;;;19.87;13.43;;;;;;;-3.39;53.99;95814.72;1733126;81;21176;-63
2022/01/12 06:58:56;;;;;;;16.80;11.70;;;;;;;-3.39;53.78;95803.97;1721603;81;21072;-63
2022/01/12 07:01:23;;;;;;;18.65;12.10;;;;;;;-3.34;53.56;95802.42;1700053;81;21086;-60
2022/01/12 07:03:50;;;;;;;27.77;18.40;;;;;;;-3.37;53.47;95810.37;1733707;80;21450;-65
2022/01/12 07:06:18;;;;;;;21.55;15.45;;;;;;;-3.43;53.39;95812.48;1680122;83;21113;-64
2022/01/12 07:08:45;;;;;;;30.62;19.62;;;;;;;-3.45;53.24;95805.30;1680144;83;21137;-62
2022/01/12 07:11:14;;;;;;;26.30;18.98;;;;;;;-3.51;53.47;95808.53;1700017;82;21519;-63
2022/01/12 07:13:42;;;;;;;17.98;13.05;;;;;;;-3.54;53.04;95815.92;1702897;82;21514;-63
2022/01/12 07:16:11;;;;;;;22.25;12.37;;;;;;;-3.63;53.40;95805.03;1657174;84;21138;-61
2022/01/12 07:18:39;;;;;;;18.15;13.20;;;;;;;-3.65;53.55;95807.27;1679586;83;21124;-60
2022/01/12 07:21:05;;;;;;;25.02;18.10;;;;;;;-3.70;53.88;95806.91;1665085;85;21145;-63
2022/01/12 07:23:32;;;;;;;18.70;13.05;;;;;;;-3.73;53.87;95808.92;1652616;84;21020;-65
2022/01/12 07:26:01;;;;;;;16.42;11.78;;;;;;;-3.71;53.87;95811.29;1649323;84;21507;-62
2022/01/12 07:28:28;;;;;;;18.40;13.58;;;;;;;-3.73;53.91;95824.28;1639126;83;21219;-66
2022/01/12 07:30:54;;;;;;;20.57;13.15;;;;;;;-3.78;53.80;95814.51;1670926;83;21113;-64
2022/01/12 07:33:22;;;;;;;21.65;15.08;;;;;;;-3.80;54.45;95811.91;1715032;80;21171;-63
2022/01/12 07:35:51;;;;;;;21.23;13.88;;;;;;;-3.72;54.14;95817.20;1733454;80;20974;-63
2022/01/12 07:38:17;;;;;;;20.37;15.28;;;;;;;-3.73;54.02;95814.88;1716125;80;21196;-65
2022/01/12 07:40:45;;;;;;;18.98;13.43;;;;;;;-3.72;54.59;95812.41;1705554;81;21296;-63
2022/01/12 07:43:15;;;;;;;18.60;13.15;;;;;;;-3.62;54.72;95820.05;1700772;82;21564;-69
2022/01/12 07:45:42;;;;;;;20.08;14.05;;;;;;;-3.51;54.58;95822.78;1716915;81;21528;-66
2022/01/12 07:48:12;;;;;;;20.15;15.10;;;;;;;-3.45;54.22;95811.26;1729684;80;21533;-61
2022/01/12 07:50:45;;;;;;;19.65;13.75;;;;;;;-3.38;54.45;95818.98;1736428;80;21601;-61
2022/01/12 07:53:16;;;;;;;24.15;15.78;;;;;;;-3.28;54.68;95813.77;1734493;81;21431;-62
2022/01/12 07:55:43;;;;;;;22.25;16.12;;;;;;;-3.12;54.43;95823.53;1723891;81;21086;-65
2022/01/12 07:58:09;;;;;;;22.52;15.38;;;;;;;-3.00;53.45;95818.72;1714692;80;21080;-66
2022/01/12 08:00:37;;;;;;;18.95;14.10;;;;;;;-3.05;52.66;95817.03;1731178;80;21055;-62
2022/01/12 08:03:04;;;;;;;26.37;16.32;;;;;;;-3.02;53.01;95825.77;1684326;82;21089;-63
2022/01/12 08:05:36;;;;;;;33.65;17.57;;;;;;;-2.91;53.11;95824.80;1661125;83;21047;-62
2022/01/12 08:08:03;;;;;;;19.02;13.95;;;;;;;-2.88;53.04;95827.59;1658182;83;21004;-67
2022/01/12 08:10:33;;;;;;;21.42;14.10;;;;;;;-2.85;52.95;95827.48;1710314;82;21097;-69
2022/01/12 08:13:04;;;;;;;20.08;14.85;;;;;;;-2.86;52.47;95830.72;1719202;81;21034;-66
2022/01/12 08:15:32;;;;;;;26.60;15.68;;;;;;;-2.81;52.51;95834.56;1701543;82;21017;-67
2022/01/12 08:18:00;;;;;;;22.20;14.10;;;;;;;-2.78;52.18;95836.58;1735998;80;21133;-64
2022/01/12 08:20:29;;;;;;;22.52;14.20;;;;;;;-2.80;52.14;95839.37;1695827;81;21102;-72
2022/01/12 08:22:56;;;;;;;21.10;13.30;;;;;;;-2.82;51.83;95835.69;1699152;81;21963;-68
2022/01/12 08:25:24;;;;;;;19.75;12.90;;;;;;;-2.77;51.80;95834.11;1721663;81;21110;-65
2022/01/12 08:27:51;;;;;;;29.02;13.53;;;;;;;-2.57;51.36;95839.14;1736453;80;21014;-69
2022/01/12 08:30:22;;;;;;;31.07;17.00;;;;;;;-2.45;51.12;95842.64;1715227;80;21134;-71
2022/01/12 08:32:52;;;;;;;28.02;16.32;;;;;;;-2.44;50.80;95841.52;1717583;81;21136;-65
2022/01/12 08:35:19;;;;;;;32.25;18.62;;;;;;;-2.47;51.07;95848.90;1728480;80;21114;-64
2022/01/12 08:37:46;;;;;;;31.02;15.15;;;;;;;-2.44;51.03;95842.06;1703570;81;21081;-65
2022/01/12 08:40:16;;;;;;;18.85;12.68;;;;;;;-2.38;51.07;95841.50;1707146;81;21126;-62
2022/01/12 08:42:43;;;;;;;26.82;17.25;;;;;;;-2.28;50.88;95842.95;1705551;81;21055;-68
2022/01/12 08:45:13;;;;;;;23.98;16.93;;;;;;;-2.18;50.59;95848.66;1713218;80;21548;-67
2022/01/12 08:47:41;;;;;;;25.25;15.45;;;;;;;-2.12;50.65;95840.55;1705367;81;21297;-67
2022/01/12 08:50:08;;;;;;;19.32;12.90;;;;;;;-1.99;50.64;95845.38;1728475;80;20965;-69
2022/01/12 08:52:35;;;;;;;17.73;12.58;;;;;;;-1.86;50.48;95848.23;1665271;82;21026;-65
2022/01/12 08:55:02;;;;;;;16.77;12.13;;;;;;;-1.80;50.11;95842.27;1689400;82;21629;-66
2022/01/12 08:57:29;;;;;;;18.23;11.50;;;;;;;-1.66;49.94;95853.47;1680630;83;21492;-63
2022/01/12 08:59:58;;;;;;;16.85;11.95;;;;;;;-1.58;49.76;95855.22;1685232;82;21076;-64
2022/01/12 09:02:24;;;;;;;15.83;11.15;;;;;;;-1.42;49.43;95843.92;1670056;83;21094;-65
2022/01/12 09:04:51;;;;;;;31.50;18.12;;;;;;;-1.29;48.80;95840.81;1669014;83;21115;-62
2022/01/12 09:07:19;;;;;;;36.95;20.40;;;;;;;-1.33;49.12;95839.94;1679922;83;21045;-69
2022/01/12 09:09:49;;;;;;;31.50;19.20;;;;;;;-1.28;48.88;95837.02;1656200;82;21111;-65
2022/01/12 09:12:19;;;;;;;28.73;17.37;;;;;;;-1.08;48.20;95831.14;1662485;83;21760;-66
2022/01/12 09:14:46;;;;;;;22.93;16.17;;;;;;;-0.75;47.53;95828.91;1656744;84;21149;-64
2022/01/12 09:17:18;;;;;;;20.43;13.80;;;;;;;-0.43;47.17;95837.22;1677883;83;20998;-64
2022/01/12 09:19:46;;;;;;;;;;;;;;;-0.08;46.42;95832.63;1672272;83;21588;-65
2022/01/12 09:22:16;;;;;;;24.18;15.70;;;;;;;0.34;46.29;95828.32;1631155;83;20172;-63
2022/01/12 09:24:46;;;;;;;30.90;17.80;;;;;;;0.90;45.83;95830.77;1679084;82;21162;-64
2022/01/12 09:27:13;;;;;;;46.28;21.77;;;;;;;1.32;44.32;95828.81;1680329;83;21054;-63
2022/01/12 09:29:45;;;;;;;20.97;14.15;;;;;;;1.39;43.75;95827.59;1660214;83;21052;-61
2022/01/12 09:32:14;;;;;;;44.13;24.45;;;;;;;1.39;43.70;95823.52;1730044;80;21063;-64
2022/01/12 09:34:45;;;;;;;34.50;20.37;;;;;;;1.27;43.33;95827.77;1731252;81;20957;-63
2022/01/12 09:37:12;;;;;;;35.63;20.35;;;;;;;1.19;43.15;95828.80;1698558;80;21145;-62
2022/01/12 09:39:39;;;;;;;41.20;21.85;;;;;;;1.07;43.36;95818.68;1725944;80;20998;-66
2022/01/12 09:42:06;;;;;;;38.90;19.67;;;;;;;0.85;43.40;95816.18;1731621;80;21029;-69
2022/01/12 09:44:37;;;;;;;34.33;18.27;;;;;;;0.67;43.78;95817.77;1717986;80;21080;-65
2022/01/12 09:47:06;;;;;;;20.60;13.43;;;;;;;0.72;43.92;95816.13;1735806;80;21669;-65
2022/01/12 09:49:36;;;;;;;27.10;17.05;;;;;;;0.99;43.96;95807.52;1731587;80;21121;-67
2022/01/12 09:52:04;;;;;;;33.95;18.12;;;;;;;1.22;44.07;95806.95;1743059;80;21580;-65
2022/01/12 09:54:31;;;;;;;30.43;17.85;;;;;;;1.51;43.32;95812.47;1736541;80;21095;-64
2022/01/12 09:56:59;;;;;;;21.45;14.38;;;;;;;2.01;42.57;95793.08;1717433;81;21067;-65
2022/01/12 09:59:27;;;;;;;19.05;13.70;;;;;;;2.58;41.31;95802.94;1692003;81;21045;-63
2022/01/12 10:01:54;;;;;;;19.02;13.05;;;;;;;2.94;41.10;95804.11;1715247;81;21037;-69
2022/01/12 10:04:28;;;;;;;15.53;11.60;;;;;;;3.03;40.44;95799.93;1727292;80;21009;-62
2022/01/12 10:07:01;;;;;;;23.90;14.23;;;;;;;3.03;39.49;95797.80;1739818;80;21137;-66
2022/01/12 10:09:38;;;;;;;31.12;15.90;;;;;;;2.92;39.61;95807.21;1726255;81;21009;-65
2022/01/12 10:12:16;;;;;;;27.70;17.05;;;;;;;2.74;39.56;95796.73;1705669;82;21057;-64
2022/01/12 10:14:58;;;;;;;18.07;12.82;;;;;;;2.68;39.35;95796.83;1699701;82;21113;-69
2022/01/12 10:17:44;;;;;;;15.70;11.90;;;;;;;2.70;39.00;95793.77;1724357;80;21080;-65
2022/01/12 10:20:21;;;;;;;16.30;11.43;;;;;;;2.68;39.45;95794.11;1678088;83;21080;-62
2022/01/12 10:23:09;;;;;;;41.00;23.75;;;;;;;2.94;39.42;95790.52;1710361;81;21015;-64
2022/01/12 10:25:36;;;;;;;32.65;18.60;;;;;;;3.09;38.94;95796.30;1707231;82;20985;-63
2022/01/12 10:28:20;;;;;;;30.97;16.23;;;;;;;3.34;38.63;95792.66;1727056;80;21113;-67
2022/01/12 10:31:01;;;;;;;18.32;12.65;;;;;;;3.49;38.40;95792.99;1717139;82;21063;-65
2022/01/12 10:33:33;;;;;;;19.73;13.22;;;;;;;3.46;37.57;95795.67;1706478;82;21092;-63
2022/01/12 10:36:06;;;;;;;30.72;18.87;;;;;;;3.51;38.01;95788.72;1692246;81;21038;-64
2022/01/12 10:38:33;;;;;;;22.73;15.55;;;;;;;3.84;38.34;95789.17;1711218;81;21031;-65
2022/01/12 10:41:04;;;;;;;23.52;16.87;;;;;;;4.36;37.95;95781.31;1721672;80;21134;-63
2022/01/12 10:43:43;;;;;;;26.20;18.17;;;;;;;4.89;37.71;95783.66;1720449;81;21059;-66
2022/01/12 10:46:14;;;;;;;21.15;13.93;;;;;;;5.46;37.11;95785.31;1701087;81;21288;-63
2022/01/12 10:48:51;;;;;;;15.68;11.50;;;;;;;5.87;35.90;95782.41;1705252;80;21523;-63
2022/01/12 10:51:25;;;;;;;16.02;12.15;;;;;;;6.00;35.89;95784.94;1725179;80;21674;-65
2022/01/12 10:53:55;;;;;;;19.32;13.28;;;;;;;5.83;35.66;95774.20;1711366;82;21099;-69
2022/01/12 10:56:23;;;;;;;20.57;14.93;;;;;;;5.79;35.73;95777.53;1732391;80;21109;-62
2022/01/12 10:58:52;;;;;;;22.07;15.23;;;;;;;5.83;35.07;95777.54;1710885;80;22155;-62
2022/01/12 11:01:25;;;;;;;25.02;16.30;;;;;;;6.09;35.27;95775.73;1731535;81;21089;-67
2022/01/12 11:03:53;;;;;;;19.62;14.15;;;;;;;6.44;34.39;95766.88;1718474;81;21060;-63
2022/01/12 11:06:19;;;;;;;19.50;13.22;;;;;;;6.79;33.90;95761.84;1736274;81;21153;-62
2022/01/12 11:08:49;;;;;;;21.87;15.70;;;;;;;6.78;34.01;95761.66;1730364;81;21147;-66
2022/01/12 11:11:21;;;;;;;22.42;15.08;;;;;;;6.73;34.05;95753.88;1730118;80;21121;-64
2022/01/12 11:13:51;;;;;;;22.58;15.23;;;;;;;6.96;33.58;95752.77;1722065;81;21077;-64
2022/01/12 11:16:22;;;;;;;20.32;14.73;;;;;;;6.85;33.21;95749.33;1719950;81;21152;-64
2022/01/12 11:18:49;;;;;;;21.87;15.70;;;;;;;6.87;33.15;95744.23;1676998;83;21142;-61
2022/01/12 11:21:27;;;;;;;18.92;12.28;;;;;;;7.06;32.81;95747.23;1727301;81;21056;-64
2022/01/12 11:24:00;;;;;;;23.73;16.50;;;;;;;7.15;32.27;95740.14;1723802;81;21046;-63
2022/01/12 11:26:30;;;;;;;22.35;15.18;;;;;;;6.90;32.72;95739.33;1687996;81;21083;-64
2022/01/12 11:28:59;;;;;;;25.57;19.27;;;;;;;6.65;32.04;95738.66;1739082;81;21066;-63
2022/01/12 11:31:32;;;;;;;19.85;13.95;;;;;;;6.48;32.88;95729.98;1711920;82;21244;-65
2022/01/12 11:34:01;;;;;;;17.82;13.25;;;;;;;6.84;32.52;95727.23;1730594;81;21454;-62
2022/01/12 11:36:37;;;;;;;18.75;13.48;;;;;;;7.23;32.13;95722.52;1730507;81;20955;-62
2022/01/12 11:39:11;;;;;;;16.97;11.83;;;;;;;7.44;31.67;95727.83;1705983;82;21070;-63
2022/01/12 11:41:40;;;;;;;18.00;13.85;;;;;;;7.73;30.85;95727.77;1728530;81;21081;-63
2022/01/12 11:44:26;;;;;;;20.52;15.23;;;;;;;7.93;30.50;95719.19;1735012;82;21149;-64
2022/01/12 11:46:57;;;;;;;33.35;19.37;;;;;;;8.24;30.65;95722.20;1734247;81;21007;-66
2022/01/12 11:49:44;;;;;;;17.10;13.08;;;;;;;8.66;30.60;95723.08;1727973;81;21513;-64
2022/01/12 11:52:29;;;;;;;24.70;13.85;;;;;;;9.23;29.28;95723.28;1733229;81;21073;-64
2022/01/12 11:55:17;;;;;;;17.62;11.25;;;;;;;9.80;28.89;95720.44;1692721;82;21029;-66
2022/01/12 11:57:50;;;;;;;18.50;12.05;;;;;;;10.24;28.13;95714.56;1724052;81;21152;-64
2022/01/12 12:00:20;;;;;;;23.05;15.15;;;;;;;10.28;27.67;95718.02;1698626;80;21986;-66
2022/01/12 12:02:52;;;;;;;18.30;12.58;;;;;;;10.51;27.07;95712.48;1728402;80;21111;-66
2022/01/12 12:05:28;;;;;;;17.90;12.30;;;;;;;10.62;26.80;95719.91;1707665;82;21129;-62
2022/01/12 12:08:04;;;;;;;18.70;12.70;;;;;;;10.57;26.95;95715.67;1715489;81;21103;-65
2022/01/12 12:10:35;;;;;;;21.68;15.00;;;;;;;10.54;26.54;95716.52;1734917;81;21215;-68
2022/01/12 12:13:02;;;;;;;17.75;13.95;;;;;;;10.31;27.17;95718.58;1692271;82;21051;-62
2022/01/12 12:15:30;;;;;;;13.20;10.05;;;;;;;10.39;27.64;95719.98;1716011;79;21000;-65
2022/01/12 12:18:03;;;;;;;16.17;11.48;;;;;;;10.31;27.33;95713.07;1724880;81;21529;-65
2022/01/12 12:20:27;;;;;;;36.95;26.05;;;;;;;10.28;27.58;95716.05;1718740;81;21031;-63
2022/01/12 12:22:56;;;;;;;46.98;34.08;;;;;;;10.24;27.60;95717.31;1728573;80;21140;-63
2022/01/12 12:25:29;;;;;;;29.02;19.67;;;;;;;10.22;27.85;95712.83;1735873;80;21065;-69
2022/01/12 12:28:04;;;;;;;30.77;20.15;;;;;;;10.63;27.18;95713.20;1714591;80;21676;-68
2022/01/12 12:30:37;;;;;;;24.05;16.45;;;;;;;10.82;26.45;95712.59;1702583;81;21062;-66
2022/01/12 12:33:08;;;;;;;26.43;17.33;;;;;;;10.60;27.08;95714.06;1696710;82;21115;-69
2022/01/12 12:35:37;;;;;;;21.65;14.75;;;;;;;10.62;27.34;95707.53;1704030;81;21202;-65
2022/01/12 12:38:07;;;;;;;32.50;20.10;;;;;;;10.73;27.16;95704.14;1709314;81;21078;-68
2022/01/12 12:40:40;;;;;;;30.10;19.57;;;;;;;10.78;27.04;95707.77;1720102;81;21471;-65
2022/01/12 12:43:24;;;;;;;100.78;53.15;;;;;;;10.87;27.01;95720.38;1713989;80;21014;-64
2022/01/12 12:45:56;;;;;;;69.03;39.92;;;;;;;10.89;26.29;95712.47;1737365;80;21094;-71
2022/01/12 12:48:28;;;;;;;242.22;139.32;;;;;;;10.78;26.79;95720.77;1726742;81;21148;-69
2022/01/12 12:51:05;;;;;;;259.25;173.00;;;;;;;10.77;27.50;95725.48;1740796;80;21071;-65
2022/01/12 12:53:35;;;;;;;42.62;31.20;;;;;;;10.83;27.18;95725.16;1716681;80;21558;-63
2022/01/12 12:56:04;;;;;;;20.25;13.95;;;;;;;10.63;27.24;95721.46;1711563;80;21124;-63
2022/01/12 12:58:31;;;;;;;17.92;12.53;;;;;;;10.44;27.28;95716.73;1726116;80;21098;-67
2022/01/12 13:01:10;;;;;;;17.20;11.55;;;;;;;10.22;27.50;95717.75;1732917;80;21135;-65
2022/01/12 13:03:39;;;;;;;16.35;12.28;;;;;;;9.99;27.60;95719.09;1690182;81;21042;-67
2022/01/12 13:06:07;;;;;;;18.82;13.90;;;;;;;9.96;27.63;95727.42;1714036;81;21566;-67
2022/01/12 13:08:34;;;;;;;16.00;12.00;;;;;;;9.78;27.83;95722.83;1730709;80;21525;-64
2022/01/12 13:11:07;;;;;;;20.85;14.85;;;;;;;9.70;27.51;95725.49;1687648;82;20997;-63
2022/01/12 13:13:35;;;;;;;21.75;14.40;;;;;;;9.52;27.82;95716.17;1696261;80;21499;-67
2022/01/12 13:16:09;;;;;;;18.80;13.50;;;;;;;9.50;28.12;95715.82;1714337;80;21014;-73
2022/01/12 13:18:42;;;;;;;20.43;13.15;;;;;;;9.54;28.17;95710.25;1721894;81;21046;-69
2022/01/12 13:21:07;;;;;;;23.80;15.95;;;;;;;9.61;28.26;95702.67;1668533;80;21032;-66